»·PEaware :: N429 L52-L88

N429 :: L52-L88

FLIGHT INFORMATION

Flight Status: Arrived
Operator: Privately registered:
United States
More flights under this callsign
Pilot: Nick S. (31988)
Aircraft: CESSNA 172 SKYHAWK
(C172)
More flights by this aircraft type
Origin: L52 Oceano Co
United States
Destination: L88 New Cuyama
United States
More flights between these airports :: More routes between these airports
Route: L52 WYNNR L88
File this flight plan on PilotEdge
Remarks:
Altitude:
(Current/Filed)
3,500ft
Speed:
(Current/Filed)
110kts
Departed: 11-Oct-20 12:37 PM
Arrived: 11-Oct-20 01:09 PM
Distance/Time
Traveled:
47nm/0:32
Distance/Time
To Go:
Arrived

Flight Plot

Page will automatically refresh every two minutes.


Map Options




Map Legend


Flown Route
Filed Route
Departure Airport
Arrival Airport
Navaid (VOR, NDB)
Fix

Horizontal Profiles

Position Reports

Time Latitude Longitude Heading Altitude Ground
Speed
11-Oct-20 12:24 35.102153 -120.622308 16 18ft 0kts
11-Oct-20 12:25 35.102153 -120.622308 16 18ft 0kts
11-Oct-20 12:26 35.102153 -120.622308 16 18ft 0kts
11-Oct-20 12:27 35.102153 -120.622308 16 18ft 0kts
11-Oct-20 12:28 35.102153 -120.622308 16 18ft 0kts
11-Oct-20 12:29 35.102153 -120.622308 16 18ft 0kts
11-Oct-20 12:30 35.102687 -120.623595 300 20ft 8kts
11-Oct-20 12:31 35.102586 -120.625237 302 20ft 0kts
11-Oct-20 12:32 35.103120 -120.625299 120 19ft 6kts
11-Oct-20 12:33 35.101431 -120.623081 124 20ft 20kts
11-Oct-20 12:34 35.099885 -120.620150 119 17ft 0kts
11-Oct-20 12:35 35.099602 -120.619532 70 17ft 2kts
11-Oct-20 12:36 35.106159 -120.631528 297 256ft 75kts
11-Oct-20 12:37 35.112178 -120.629798 108 958ft 79kts
11-Oct-20 12:38 35.106792 -120.603699 94 1678ft 87kts
11-Oct-20 12:39 35.104024 -120.570940 85 2178ft 103kts
11-Oct-20 12:40 35.105537 -120.535378 85 2674ft 104kts
11-Oct-20 12:41 35.106952 -120.499928 82 3196ft 104kts
11-Oct-20 12:42 35.108344 -120.464230 83 3540ft 109kts
11-Oct-20 12:43 35.109781 -120.427820 83 3550ft 106kts
11-Oct-20 12:44 35.111101 -120.392434 84 3557ft 104kts
11-Oct-20 12:45 35.112411 -120.357617 84 3563ft 102kts
11-Oct-20 12:46 35.113735 -120.322578 84 3562ft 103kts
11-Oct-20 12:47 35.115031 -120.287618 83 3557ft 101kts
11-Oct-20 12:48 35.116311 -120.253248 84 3558ft 102kts
11-Oct-20 12:49 35.111228 -120.220829 144 3577ft 111kts
11-Oct-20 12:50 35.105243 -120.187473 75 3566ft 103kts
11-Oct-20 12:51 35.112450 -120.152845 85 3579ft 107kts
11-Oct-20 12:52 35.112415 -120.116676 100 3585ft 106kts
11-Oct-20 12:53 35.104914 -120.080892 117 3592ft 111kts
11-Oct-20 12:54 35.088762 -120.048829 119 3588ft 110kts
11-Oct-20 12:55 35.072771 -120.016726 119 3588ft 110kts
11-Oct-20 12:56 35.055549 -119.986536 99 3607ft 107kts
11-Oct-20 12:57 35.043204 -119.953374 129 3608ft 107kts
11-Oct-20 12:58 35.023570 -119.925391 128 3606ft 109kts
11-Oct-20 12:59 35.005214 -119.896699 124 3604ft 106kts
11-Oct-20 13:00 34.988642 -119.866866 125 3611ft 106kts
11-Oct-20 13:01 34.974034 -119.835033 110 3452ft 109kts
11-Oct-20 13:02 34.962783 -119.800861 114 3216ft 109kts
11-Oct-20 13:03 34.950978 -119.767119 114 3234ft 107kts
11-Oct-20 13:04 34.938537 -119.734043 114 3215ft 107kts
11-Oct-20 13:05 34.934964 -119.701081 128 3431ft 85kts
11-Oct-20 13:06 34.924963 -119.674348 113 3125ft 85kts
11-Oct-20 13:07 34.936578 -119.677390 295 2300ft 77kts
11-Oct-20 13:08 34.942677 -119.690796 347 2178ft 22kts
11-Oct-20 13:09 34.942967 -119.691130 147 2175ft 0kts
11-Oct-20 13:10 34.942967 -119.691130 147 2175ft 0kts
11-Oct-20 13:11 34.942967 -119.691130 147 2175ft 0kts
11-Oct-20 13:12 34.942967 -119.691130 147 2175ft 0kts
11-Oct-20 13:13 34.942967 -119.691130 147 2175ft 0kts
11-Oct-20 13:14 34.942967 -119.691130 147 2175ft 0kts
11-Oct-20 13:15 34.942967 -119.691130 147 2175ft 0kts
11-Oct-20 13:16 34.942967 -119.691130 147 2175ft 0kts
11-Oct-20 13:17 34.942967 -119.691130 147 2175ft 0kts
11-Oct-20 13:18 34.942967 -119.691130 147 2175ft 0kts
11-Oct-20 13:19 34.942967 -119.691130 147 2175ft 0kts
11-Oct-20 13:20 34.942967 -119.691130 147 2175ft 0kts
11-Oct-20 13:22 34.942967 -119.691130 147 2175ft 0kts
11-Oct-20 13:23 34.942967 -119.691130 147 2175ft 0kts

Navigation Log

Ident Type
Flight plan parsing failed, navigation log unavailable